메인 페이지
METAR-TAF:

METAR-TAF

공항 :

도쿄 국제공항

도쿄국제공항, 일본

위도: 35-33N, 경도: 139-47E, 고도: 5m

현재 날씨관측

예보는 33분 전, 21:00시(UTC)에 발표되었습니다.
동남동5kt
온도 19°C
습도 73%
기압 1013 hPa
시정 10km 이상
고도 2500ft 상공 구름 조금
고도 19000ft 상공 구름 보통
구름 많음

METAR: RJTT 222100Z 12005KT 9999 FEW025 SCT190 BKN/// 19/14 Q1013 NOSIG RMK 1CU025 3AC190 A2993

시각: 06:33 (21:33 UTC)

예보

예보는 4 시간 27분 전, 17:06시(UTC)에 발표되었습니다.
예보 대상 시간: 22일 18시부터 24일 00시까지 (UTC)
동남동7kt
시정 10km 이상
고도 2000ft 상공 구름 조금
고도 3500ft 상공 구름 많음
일시적
23일 09시부터 23일 15시까지 (UTC)
시정: 4000m
고도 500ft 상공 구름 조금
고도 800ft 상공 구름 많음
약한비, 박무
전환 중
23일 15시부터 23일 18시까지 (UTC)
10kt
일시적
23일 15시부터 23일 21시까지 (UTC)
시정: 3000m
고도 400ft 상공 구름 조금
고도 800ft 상공 구름 많음
약한소나기, 박무

TAF: RJTT 221706Z 2218/2400 11007KT 9999 FEW020 BKN035 TEMPO 2309/2315 4000 -RA BR FEW005 BKN008 BECMG 2315/2318 35010KT TEMPO 2315/2321 3000 -SHRA BR FEW004 BKN008

4,000개 이상의 공항 관측 자료 및 예보 (METAR 및 TAF 보고).

지도상에서 검색 가능한 기상관측소가 노란 점과 빨간 점으로 표시되어 있습니다.

기상관측소 명을 보려면 표시 위로 마우스를 이동하세요.

날씨 관측과 예보를 보려면 클릭하세요.

지도 변경 : 확대하려면 엑스 표시가 있는 녹색 버튼, 축소하려면 빼기 표시가 있는 녹색 버튼, 다음 페이지의 지도를 보려면 녹색 화살표를 클릭하세요.


METAR-TAF: